createdAt,value
2022-08-27T20:47:32.108Z,3.42
2022-08-27T20:50:22.666Z,3.88
2022-08-27T20:53:11.845Z,4.00
2022-08-27T20:56:01.235Z,3.75
2022-08-27T20:59:07.407Z,3.63
2022-08-27T21:01:56.555Z,4.30
2022-08-27T21:04:48.276Z,4.03
2022-08-27T21:07:37.592Z,4.05
2022-08-27T21:10:27.010Z,4.25
2022-08-27T21:13:16.786Z,4.70
2022-08-27T21:16:06.900Z,4.72
2022-08-27T21:18:56.286Z,5.13
2022-08-27T21:21:46.988Z,5.15
2022-08-27T21:24:36.414Z,5.22
2022-08-27T21:27:25.380Z,5.35
2022-08-27T21:30:15.203Z,5.30
2022-08-27T21:33:04.759Z,5.75
2022-08-27T21:35:53.873Z,6.57
2022-08-27T21:38:44.401Z,5.78
2022-08-27T21:41:37.321Z,5.93
2022-08-27T21:44:26.526Z,5.90
2022-08-27T21:47:16.164Z,6.35
2022-08-27T21:50:06.432Z,6.63
2022-08-27T21:52:56.243Z,5.90
2022-08-27T21:55:47.803Z,6.78
2022-08-27T21:58:37.321Z,7.13
2022-08-27T22:01:26.585Z,6.68
2022-08-27T22:04:15.712Z,6.75
2022-08-27T22:07:05.467Z,6.57
2022-08-27T22:09:54.394Z,6.65
2022-08-27T22:12:45.209Z,7.35
2022-08-27T22:15:34.267Z,6.72
2022-08-27T22:18:23.987Z,6.55
2022-08-27T22:21:13.348Z,6.68
2022-08-27T22:24:02.411Z,7.28
2022-08-27T22:26:52.206Z,6.15
2022-08-27T22:29:42.984Z,6.20
2022-08-27T22:32:33.044Z,6.53
2022-08-27T22:35:23.208Z,6.07
2022-08-27T22:38:12.971Z,5.93
2022-08-27T22:41:02.868Z,6.18
2022-08-27T22:43:54.367Z,6.45
2022-08-27T22:46:47.589Z,6.47
2022-08-27T22:49:37.142Z,6.43
2022-08-27T22:52:28.244Z,7.15
2022-08-27T22:55:19.627Z,7.22
2022-08-27T22:58:09.273Z,6.78
2022-08-27T23:00:58.851Z,8.02
2022-08-27T23:03:49.725Z,8.38
2022-08-27T23:06:39.079Z,8.32
2022-08-27T23:09:28.319Z,9.48
2022-08-27T23:12:17.504Z,9.23
2022-08-27T23:15:07.679Z,9.95
2022-08-27T23:17:57.188Z,12.73
2022-08-27T23:20:47.790Z,10.82
2022-08-27T23:23:38.863Z,8.95
2022-08-27T23:26:45.757Z,8.60
2022-08-27T23:29:35.852Z,10.63
2022-08-27T23:32:25.593Z,11.20
2022-08-27T23:35:15.726Z,10.65
2022-08-27T23:38:07.209Z,10.15
2022-08-27T23:40:56.755Z,10.40
2022-08-27T23:43:46.876Z,10.55
2022-08-27T23:46:36.445Z,12.85
2022-08-27T23:49:26.163Z,15.05
2022-08-27T23:52:15.997Z,14.68
2022-08-27T23:55:08.609Z,14.27
2022-08-27T23:57:57.948Z,11.48
